Airfield :
LOGIN :

Register | Disclaimer

   EN    FR    IT 

 










Legend :    VFR   Marginal VFR   IFR   Intensive IFR   Very Intensive IFR
Visi :
Ceiling :
>= 8 km
>= 3000ft
5 to 8 km
1000 to 3000 ft
1500m to 5 km
500 to 1000 ft
800 to 1500m
200 to 500 ft
< 800m
< 200 ft
Symbols :   Thunderstorms  Fog  Heavy snow  Heavy precipitations  Wind > 20 kt
SIGMETs :     Misc.  Thunderstorms  Icing  Turbulence  Mountain Waves  Volcanic Ashes







- Airport Elevation : 13 ft
- IATA code : SNR
- Download approach charts


LFRZ - St-Nazaire

CURRENT METAR :
  • 250830Z AUTO 29012KT 260V320 9999 FEW018/// BKN025/// OVC030/// 14/11 Q1018 NOSIG

EXPIRED METARs :
  • 250800Z AUTO 28010KT 9999 SCT013 BKN019 BKN027 15/12 Q1018 NOSIG
  • 250730Z AUTO 28009KT 240V300 9999 FEW009 SCT013 BKN028 14/13 Q1018 NOSIG
  • 250700Z AUTO 26010KT 9000 BKN009 OVC015 14/13 Q1017 TEMPO 3000 -RADZ BECMG BKN020
  • 250630Z AUTO 26009KT 9999 OVC008 14/13 Q1017 TEMPO 3000 -RADZ BECMG BKN020
  • 250600Z AUTO 25008KT 230V290 9999 OVC008 13/13 Q1017 TEMPO 3000 -RADZ OVC003

TAF TAF LFRZ
Valid from the 25 at 06:00 until the 26 at 06:00 UTC


250500Z 2506/2606 26012KT 9999 BKN020
TEMPO 2506/2508 3000 -RADZ OVC003
TEMPO 2512/2519 28018G28KT
TEMPO 2602/2606 BKN007
No reported NOTAMs for that airfield.



MET'MAP, your aeronautical weather chart ! - Copyright ORBIFLY December 2007 - Disclaimer

ORBIFLY MET'MAP TEAM :

Programming & Development : Alexandra Zaïnal
Concept & Development : Baudouin d'Aumeries
Co-Development & Prog : Marc-Olivier Méhu
Technical & hardware support : Manuel Goepfert

Contact : metmap@orbifly.com




SOURCES & CREDITS :

   NOAA